sensor_id;sensor_type;location;lat;lon;timestamp;pressure;altitude;pressure_sealevel;temperature;humidity
74466;BME280;62916;50.044;15.938;2023-12-04T00:02:21;99740.54;;;17.91;49.53
74466;BME280;62916;50.044;15.938;2023-12-04T00:04:51;99738.58;;;17.91;49.49
74466;BME280;62916;50.044;15.938;2023-12-04T00:07:22;99742.13;;;17.90;49.42
74466;BME280;62916;50.044;15.938;2023-12-04T00:09:53;99736.69;;;17.89;49.58
74466;BME280;62916;50.044;15.938;2023-12-04T00:12:24;99730.73;;;17.89;49.59
74466;BME280;62916;50.044;15.938;2023-12-04T00:14:55;99725.52;;;17.88;49.70
74466;BME280;62916;50.044;15.938;2023-12-04T00:17:26;99724.74;;;17.88;49.66
74466;BME280;62916;50.044;15.938;2023-12-04T00:19:57;99725.52;;;17.88;49.65
74466;BME280;62916;50.044;15.938;2023-12-04T00:22:28;99725.98;;;17.87;49.79
74466;BME280;62916;50.044;15.938;2023-12-04T00:24:59;99726.76;;;17.86;49.81
74466;BME280;62916;50.044;15.938;2023-12-04T00:27:30;99722.05;;;17.86;49.86
74466;BME280;62916;50.044;15.938;2023-12-04T00:30:01;99710.88;;;17.86;49.72
74466;BME280;62916;50.044;15.938;2023-12-04T00:32:33;99709.08;;;17.86;49.83
74466;BME280;62916;50.044;15.938;2023-12-04T00:35:05;99709.59;;;17.86;49.99
74466;BME280;62916;50.044;15.938;2023-12-04T00:37:36;99717.11;;;17.87;49.93
74466;BME280;62916;50.044;15.938;2023-12-04T00:40:10;99723.17;;;17.87;49.98
74466;BME280;62916;50.044;15.938;2023-12-04T00:42:41;99726.15;;;17.87;49.93
74466;BME280;62916;50.044;15.938;2023-12-04T00:45:12;99725.24;;;17.87;49.96
74466;BME280;62916;50.044;15.938;2023-12-04T00:47:43;99725.14;;;17.87;50.11
74466;BME280;62916;50.044;15.938;2023-12-04T00:50:14;99719.98;;;17.87;50.04
74466;BME280;62916;50.044;15.938;2023-12-04T00:52:45;99724.91;;;17.86;50.10
74466;BME280;62916;50.044;15.938;2023-12-04T00:55:16;99727.83;;;17.86;50.09
74466;BME280;62916;50.044;15.938;2023-12-04T00:57:47;99725.42;;;17.85;50.23
74466;BME280;62916;50.044;15.938;2023-12-04T01:00:19;99735.35;;;17.86;50.25
74466;BME280;62916;50.044;15.938;2023-12-04T01:02:49;99734.66;;;17.87;50.22
74466;BME280;62916;50.044;15.938;2023-12-04T01:05:21;99734.61;;;17.87;50.18
74466;BME280;62916;50.044;15.938;2023-12-04T01:07:51;99735.17;;;17.88;50.13
74466;BME280;62916;50.044;15.938;2023-12-04T01:10:23;99735.17;;;17.88;50.24
74466;BME280;62916;50.044;15.938;2023-12-04T01:12:53;99735.52;;;17.88;50.24
74466;BME280;62916;50.044;15.938;2023-12-04T01:15:24;99732.27;;;17.88;50.28
74466;BME280;62916;50.044;15.938;2023-12-04T01:17:56;99731.09;;;17.87;50.22
74466;BME280;62916;50.044;15.938;2023-12-04T01:20:26;99727.10;;;17.87;50.21
74466;BME280;62916;50.044;15.938;2023-12-04T01:22:59;99727.10;;;17.86;50.23
74466;BME280;62916;50.044;15.938;2023-12-04T01:25:30;99726.65;;;17.87;50.30
74466;BME280;62916;50.044;15.938;2023-12-04T01:28:01;99725.86;;;17.87;50.43
74466;BME280;62916;50.044;15.938;2023-12-04T01:30:32;99726.92;;;17.87;50.27
74466;BME280;62916;50.044;15.938;2023-12-04T01:33:04;99735.57;;;17.87;50.47
74466;BME280;62916;50.044;15.938;2023-12-04T01:35:35;99733.32;;;17.87;50.40
74466;BME280;62916;50.044;15.938;2023-12-04T01:38:06;99736.36;;;17.88;50.53
74466;BME280;62916;50.044;15.938;2023-12-04T01:40:37;99738.49;;;17.88;50.56
74466;BME280;62916;50.044;15.938;2023-12-04T01:43:08;99738.48;;;17.88;50.56
74466;BME280;62916;50.044;15.938;2023-12-04T01:45:39;99740.95;;;17.88;50.51
74466;BME280;62916;50.044;15.938;2023-12-04T01:48:10;99743.38;;;17.88;50.43
74466;BME280;62916;50.044;15.938;2023-12-04T01:50:41;99743.20;;;17.88;50.50
74466;BME280;62916;50.044;15.938;2023-12-04T01:53:12;99743.88;;;17.89;50.58
74466;BME280;62916;50.044;15.938;2023-12-04T01:55:44;99741.64;;;17.89;50.52
74466;BME280;62916;50.044;15.938;2023-12-04T01:58:15;99745.84;;;17.89;50.50
74466;BME280;62916;50.044;15.938;2023-12-04T02:00:46;99748.25;;;17.89;50.58
74466;BME280;62916;50.044;15.938;2023-12-04T02:03:17;99752.02;;;17.89;50.59
74466;BME280;62916;50.044;15.938;2023-12-04T02:05:49;99753.08;;;17.89;50.68
74466;BME280;62916;50.044;15.938;2023-12-04T02:08:22;99751.51;;;17.90;50.71
74466;BME280;62916;50.044;15.938;2023-12-04T02:10:53;99753.58;;;17.90;50.55
74466;BME280;62916;50.044;15.938;2023-12-04T02:13:24;99757.17;;;17.90;50.58
74466;BME280;62916;50.044;15.938;2023-12-04T02:15:58;99764.24;;;17.90;50.67
74466;BME280;62916;50.044;15.938;2023-12-04T02:18:29;99761.95;;;17.89;50.66
74466;BME280;62916;50.044;15.938;2023-12-04T02:21:01;99755.83;;;17.89;50.69
74466;BME280;62916;50.044;15.938;2023-12-04T02:23:32;99757.63;;;17.89;50.58
74466;BME280;62916;50.044;15.938;2023-12-04T02:26:09;99756.73;;;17.89;50.70
74466;BME280;62916;50.044;15.938;2023-12-04T02:28:41;99757.80;;;17.88;50.66
74466;BME280;62916;50.044;15.938;2023-12-04T02:31:13;99758.69;;;17.88;50.62
74466;BME280;62916;50.044;15.938;2023-12-04T02:33:45;99759.20;;;17.87;50.64
74466;BME280;62916;50.044;15.938;2023-12-04T02:36:16;99761.10;;;17.86;50.75
74466;BME280;62916;50.044;15.938;2023-12-04T02:38:48;99760.21;;;17.85;50.42
74466;BME280;62916;50.044;15.938;2023-12-04T02:41:19;99757.74;;;17.86;50.84
74466;BME280;62916;50.044;15.938;2023-12-04T02:43:50;99754.83;;;17.86;50.95
74466;BME280;62916;50.044;15.938;2023-12-04T02:46:22;99754.27;;;17.85;50.73
74466;BME280;62916;50.044;15.938;2023-12-04T02:48:53;99746.52;;;17.84;50.78
74466;BME280;62916;50.044;15.938;2023-12-04T02:51:24;99744.62;;;17.84;50.82
74466;BME280;62916;50.044;15.938;2023-12-04T02:53:56;99736.20;;;17.83;50.82
74466;BME280;62916;50.044;15.938;2023-12-04T02:56:26;99732.32;;;17.82;50.81
74466;BME280;62916;50.044;15.938;2023-12-04T02:58:57;99728.68;;;17.82;50.83
74466;BME280;62916;50.044;15.938;2023-12-04T03:01:28;99726.00;;;17.81;50.98
74466;BME280;62916;50.044;15.938;2023-12-04T03:03:59;99726.96;;;17.80;50.91
74466;BME280;62916;50.044;15.938;2023-12-04T03:06:30;99732.19;;;17.79;50.87
74466;BME280;62916;50.044;15.938;2023-12-04T03:09:02;99733.04;;;17.79;50.94
74466;BME280;62916;50.044;15.938;2023-12-04T03:11:33;99733.59;;;17.78;50.98
74466;BME280;62916;50.044;15.938;2023-12-04T03:14:04;99738.53;;;17.78;51.01
74466;BME280;62916;50.044;15.938;2023-12-04T03:16:35;99740.05;;;17.77;50.86
74466;BME280;62916;50.044;15.938;2023-12-04T03:19:06;99738.09;;;17.77;50.34
74466;BME280;62916;50.044;15.938;2023-12-04T03:21:37;99737.64;;;17.76;50.43
74466;BME280;62916;50.044;15.938;2023-12-04T03:24:08;99734.77;;;17.75;50.56
74466;BME280;62916;50.044;15.938;2023-12-04T03:26:39;99739.10;;;17.74;50.67
74466;BME280;62916;50.044;15.938;2023-12-04T03:29:10;99736.73;;;17.73;50.61
74466;BME280;62916;50.044;15.938;2023-12-04T03:31:41;99737.15;;;17.72;50.63
74466;BME280;62916;50.044;15.938;2023-12-04T03:34:12;99738.48;;;17.71;50.64
74466;BME280;62916;50.044;15.938;2023-12-04T03:36:43;99740.81;;;17.69;50.67
74466;BME280;62916;50.044;15.938;2023-12-04T03:39:13;99736.56;;;17.67;50.81
74466;BME280;62916;50.044;15.938;2023-12-04T03:41:44;99737.29;;;17.66;50.72
74466;BME280;62916;50.044;15.938;2023-12-04T03:44:15;99737.13;;;17.65;50.89
74466;BME280;62916;50.044;15.938;2023-12-04T03:46:46;99735.55;;;17.64;50.84
74466;BME280;62916;50.044;15.938;2023-12-04T03:49:17;99735.05;;;17.63;50.89
74466;BME280;62916;50.044;15.938;2023-12-04T03:51:48;99733.58;;;17.62;50.82
74466;BME280;62916;50.044;15.938;2023-12-04T03:54:19;99728.46;;;17.61;50.84
74466;BME280;62916;50.044;15.938;2023-12-04T03:56:50;99720.73;;;17.59;50.85
74466;BME280;62916;50.044;15.938;2023-12-04T03:59:21;99721.20;;;17.58;50.84
74466;BME280;62916;50.044;15.938;2023-12-04T04:01:52;99724.16;;;17.57;50.92
74466;BME280;62916;50.044;15.938;2023-12-04T04:04:23;99724.56;;;17.56;50.97
74466;BME280;62916;50.044;15.938;2023-12-04T04:06:54;99725.52;;;17.55;50.94
74466;BME280;62916;50.044;15.938;2023-12-04T04:09:25;99718.05;;;17.54;50.88
74466;BME280;62916;50.044;15.938;2023-12-04T04:11:55;99714.02;;;17.52;51.05
74466;BME280;62916;50.044;15.938;2023-12-04T04:14:26;99706.73;;;17.52;50.89
74466;BME280;62916;50.044;15.938;2023-12-04T04:16:57;99702.14;;;17.50;50.94
74466;BME280;62916;50.044;15.938;2023-12-04T04:19:28;99704.73;;;17.49;50.85
74466;BME280;62916;50.044;15.938;2023-12-04T04:21:59;99701.55;;;17.48;50.90
74466;BME280;62916;50.044;15.938;2023-12-04T04:24:30;99699.30;;;17.47;50.97
74466;BME280;62916;50.044;15.938;2023-12-04T04:27:01;99695.38;;;17.46;50.83
74466;BME280;62916;50.044;15.938;2023-12-04T04:29:32;99692.11;;;17.45;50.99
74466;BME280;62916;50.044;15.938;2023-12-04T04:32:03;99694.88;;;17.44;50.96
74466;BME280;62916;50.044;15.938;2023-12-04T04:34:34;99691.95;;;17.43;50.96
74466;BME280;62916;50.044;15.938;2023-12-04T04:37:05;99692.02;;;17.41;50.97
74466;BME280;62916;50.044;15.938;2023-12-04T04:39:36;99692.20;;;17.40;50.92
74466;BME280;62916;50.044;15.938;2023-12-04T04:42:07;99691.64;;;17.39;51.13
74466;BME280;62916;50.044;15.938;2023-12-04T04:44:38;99685.77;;;17.39;51.09
74466;BME280;62916;50.044;15.938;2023-12-04T04:47:09;99674.09;;;17.39;51.19
74466;BME280;62916;50.044;15.938;2023-12-04T04:49:40;99676.11;;;17.40;51.06
74466;BME280;62916;50.044;15.938;2023-12-04T04:52:11;99678.86;;;17.40;51.08
74466;BME280;62916;50.044;15.938;2023-12-04T04:54:42;99676.59;;;17.42;51.26
74466;BME280;62916;50.044;15.938;2023-12-04T04:57:13;99669.23;;;17.44;51.34
74466;BME280;62916;50.044;15.938;2023-12-04T04:59:44;99672.44;;;17.46;51.30
74466;BME280;62916;50.044;15.938;2023-12-04T05:02:15;99660.98;;;17.46;51.22
74466;BME280;62916;50.044;15.938;2023-12-04T05:04:45;99660.70;;;17.46;50.96
74466;BME280;62916;50.044;15.938;2023-12-04T05:07:16;99662.00;;;17.45;50.85
74466;BME280;62916;50.044;15.938;2023-12-04T05:09:47;99656.79;;;17.44;50.54
74466;BME280;62916;50.044;15.938;2023-12-04T05:12:18;99651.13;;;17.45;50.44
74466;BME280;62916;50.044;15.938;2023-12-04T05:14:49;99652.97;;;17.46;50.47
74466;BME280;62916;50.044;15.938;2023-12-04T05:17:20;99665.38;;;17.47;50.47
74466;BME280;62916;50.044;15.938;2023-12-04T05:19:51;99665.65;;;17.47;50.79
74466;BME280;62916;50.044;15.938;2023-12-04T05:22:22;99664.46;;;17.49;50.78
74466;BME280;62916;50.044;15.938;2023-12-04T05:24:53;99666.88;;;17.49;50.86
74466;BME280;62916;50.044;15.938;2023-12-04T05:27:24;99670.02;;;17.50;50.48
74466;BME280;62916;50.044;15.938;2023-12-04T05:29:55;99668.51;;;17.49;50.54
74466;BME280;62916;50.044;15.938;2023-12-04T05:32:25;99658.96;;;17.47;50.39
74466;BME280;62916;50.044;15.938;2023-12-04T05:34:56;99659.98;;;17.46;50.43
74466;BME280;62916;50.044;15.938;2023-12-04T05:37:27;99663.13;;;17.45;50.42
74466;BME280;62916;50.044;15.938;2023-12-04T05:39:58;99661.05;;;17.43;50.39
74466;BME280;62916;50.044;15.938;2023-12-04T05:42:29;99659.84;;;17.41;50.25
74466;BME280;62916;50.044;15.938;2023-12-04T05:45:01;99654.52;;;17.39;50.21
74466;BME280;62916;50.044;15.938;2023-12-04T05:47:32;99653.46;;;17.38;50.12
74466;BME280;62916;50.044;15.938;2023-12-04T05:50:03;99647.52;;;17.35;50.13
74466;BME280;62916;50.044;15.938;2023-12-04T05:52:34;99651.78;;;17.34;50.10
74466;BME280;62916;50.044;15.938;2023-12-04T05:55:06;99656.05;;;17.32;50.15
74466;BME280;62916;50.044;15.938;2023-12-04T05:57:39;99656.73;;;17.30;50.02
74466;BME280;62916;50.044;15.938;2023-12-04T06:00:12;99658.94;;;17.28;50.09
74466;BME280;62916;50.044;15.938;2023-12-04T06:02:44;99663.82;;;17.26;50.03
74466;BME280;62916;50.044;15.938;2023-12-04T06:05:15;99662.46;;;17.25;50.09
74466;BME280;62916;50.044;15.938;2023-12-04T06:07:46;99660.34;;;17.24;50.00
74466;BME280;62916;50.044;15.938;2023-12-04T06:10:17;99654.52;;;17.23;49.85
74466;BME280;62916;50.044;15.938;2023-12-04T06:12:51;99650.98;;;17.21;49.79
74466;BME280;62916;50.044;15.938;2023-12-04T06:15:23;99647.48;;;17.19;49.81
74466;BME280;62916;50.044;15.938;2023-12-04T06:17:54;99647.76;;;17.17;49.78
74466;BME280;62916;50.044;15.938;2023-12-04T06:20:25;99651.68;;;17.15;49.70
74466;BME280;62916;50.044;15.938;2023-12-04T06:22:58;99654.04;;;17.14;49.69
74466;BME280;62916;50.044;15.938;2023-12-04T06:25:30;99652.70;;;17.12;49.64
74466;BME280;62916;50.044;15.938;2023-12-04T06:28:02;99650.98;;;17.10;49.78
74466;BME280;62916;50.044;15.938;2023-12-04T06:30:34;99651.59;;;17.10;49.69
74466;BME280;62916;50.044;15.938;2023-12-04T06:33:07;99651.95;;;17.08;49.62
74466;BME280;62916;50.044;15.938;2023-12-04T06:35:39;99655.64;;;17.07;49.63
74466;BME280;62916;50.044;15.938;2023-12-04T06:38:13;99663.66;;;17.05;49.56
74466;BME280;62916;50.044;15.938;2023-12-04T06:40:46;99662.81;;;17.04;49.53
74466;BME280;62916;50.044;15.938;2023-12-04T06:43:18;99658.22;;;17.02;49.55
74466;BME280;62916;50.044;15.938;2023-12-04T06:45:50;99653.63;;;17.01;49.43
74466;BME280;62916;50.044;15.938;2023-12-04T06:48:23;99645.84;;;16.99;49.46
74466;BME280;62916;50.044;15.938;2023-12-04T06:50:54;99649.55;;;16.98;49.33
74466;BME280;62916;50.044;15.938;2023-12-04T06:53:25;99656.61;;;16.97;49.46
74466;BME280;62916;50.044;15.938;2023-12-04T06:55:56;99662.55;;;16.96;49.44
74466;BME280;62916;50.044;15.938;2023-12-04T06:58:27;99665.59;;;16.95;49.47
74466;BME280;62916;50.044;15.938;2023-12-04T07:00:58;99662.61;;;16.94;49.30
74466;BME280;62916;50.044;15.938;2023-12-04T07:03:30;99654.60;;;16.91;49.26
74466;BME280;62916;50.044;15.938;2023-12-04T07:06:03;99651.02;;;16.89;49.25
74466;BME280;62916;50.044;15.938;2023-12-04T07:08:34;99647.45;;;16.88;49.20
74466;BME280;62916;50.044;15.938;2023-12-04T07:11:06;99646.11;;;16.86;49.24
74466;BME280;62916;50.044;15.938;2023-12-04T07:13:37;99643.73;;;16.84;49.24
74466;BME280;62916;50.044;15.938;2023-12-04T07:16:10;99641.23;;;16.81;49.18
74466;BME280;62916;50.044;15.938;2023-12-04T07:18:41;99637.77;;;16.80;49.12
74466;BME280;62916;50.044;15.938;2023-12-04T07:21:13;99638.45;;;16.78;49.27
74466;BME280;62916;50.044;15.938;2023-12-04T07:23:44;99642.98;;;16.77;49.28
74466;BME280;62916;50.044;15.938;2023-12-04T07:26:15;99636.70;;;16.74;49.16
74466;BME280;62916;50.044;15.938;2023-12-04T07:28:46;99636.82;;;16.73;49.07
74466;BME280;62916;50.044;15.938;2023-12-04T07:31:17;99633.69;;;16.70;49.09
74466;BME280;62916;50.044;15.938;2023-12-04T07:33:48;99632.96;;;16.69;49.18
74466;BME280;62916;50.044;15.938;2023-12-04T07:36:19;99633.42;;;16.68;49.21
74466;BME280;62916;50.044;15.938;2023-12-04T07:38:50;99626.75;;;16.67;49.14
74466;BME280;62916;50.044;15.938;2023-12-04T07:41:23;99626.64;;;16.65;49.12
74466;BME280;62916;50.044;15.938;2023-12-04T07:43:54;99624.45;;;16.63;49.19
74466;BME280;62916;50.044;15.938;2023-12-04T07:46:25;99624.21;;;16.62;49.28
74466;BME280;62916;50.044;15.938;2023-12-04T07:48:56;99620.52;;;16.61;49.07
74466;BME280;62916;50.044;15.938;2023-12-04T07:51:28;99619.67;;;16.60;49.25
74466;BME280;62916;50.044;15.938;2023-12-04T07:53:58;99621.98;;;16.58;49.08
74466;BME280;62916;50.044;15.938;2023-12-04T07:56:32;99619.46;;;16.56;48.97
74466;BME280;62916;50.044;15.938;2023-12-04T07:59:03;99619.00;;;16.55;48.92
74466;BME280;62916;50.044;15.938;2023-12-04T08:01:34;99622.70;;;16.53;49.03
74466;BME280;62916;50.044;15.938;2023-12-04T08:04:05;99619.84;;;16.51;48.97
74466;BME280;62916;50.044;15.938;2023-12-04T08:06:37;99613.86;;;16.49;49.01
74466;BME280;62916;50.044;15.938;2023-12-04T08:09:08;99613.12;;;16.48;49.09
74466;BME280;62916;50.044;15.938;2023-12-04T08:11:39;99610.23;;;16.47;49.00
74466;BME280;62916;50.044;15.938;2023-12-04T08:14:10;99608.72;;;16.45;49.10
74466;BME280;62916;50.044;15.938;2023-12-04T08:16:41;99610.00;;;16.44;49.08
74466;BME280;62916;50.044;15.938;2023-12-04T08:19:12;99603.11;;;16.43;49.04
74466;BME280;62916;50.044;15.938;2023-12-04T08:21:43;99607.09;;;16.42;48.99
74466;BME280;62916;50.044;15.938;2023-12-04T08:24:14;99599.02;;;16.41;48.96
74466;BME280;62916;50.044;15.938;2023-12-04T08:26:48;99597.73;;;16.39;49.10
74466;BME280;62916;50.044;15.938;2023-12-04T08:29:20;99595.23;;;16.38;49.00
74466;BME280;62916;50.044;15.938;2023-12-04T08:31:51;99592.83;;;16.37;49.03
74466;BME280;62916;50.044;15.938;2023-12-04T08:34:22;99592.99;;;16.36;49.08
74466;BME280;62916;50.044;15.938;2023-12-04T08:36:53;99588.85;;;16.35;49.22
74466;BME280;62916;50.044;15.938;2023-12-04T08:39:24;99592.72;;;16.35;48.99
74466;BME280;62916;50.044;15.938;2023-12-04T08:41:56;99592.27;;;16.34;49.26
74466;BME280;62916;50.044;15.938;2023-12-04T08:44:35;99597.36;;;16.33;49.10
74466;BME280;62916;50.044;15.938;2023-12-04T08:47:07;99595.61;;;16.32;49.12
74466;BME280;62916;50.044;15.938;2023-12-04T08:49:39;99591.02;;;16.31;49.11
74466;BME280;62916;50.044;15.938;2023-12-04T08:52:17;99585.14;;;16.31;49.11
74466;BME280;62916;50.044;15.938;2023-12-04T08:54:48;99584.59;;;16.31;49.17
74466;BME280;62916;50.044;15.938;2023-12-04T08:57:19;99587.39;;;16.31;49.15
74466;BME280;62916;50.044;15.938;2023-12-04T08:59:50;99593.04;;;16.31;49.15
74466;BME280;62916;50.044;15.938;2023-12-04T09:02:21;99588.84;;;16.30;49.27
74466;BME280;62916;50.044;15.938;2023-12-04T09:04:52;99586.88;;;16.30;49.16
74466;BME280;62916;50.044;15.938;2023-12-04T09:07:23;99582.62;;;16.30;49.28
74466;BME280;62916;50.044;15.938;2023-12-04T09:10:14;99582.69;;;16.29;49.28
74466;BME280;62916;50.044;15.938;2023-12-04T09:13:06;99585.42;;;16.30;49.26
74466;BME280;62916;50.044;15.938;2023-12-04T09:15:37;99580.34;;;16.30;49.43
74466;BME280;62916;50.044;15.938;2023-12-04T09:18:08;99580.45;;;16.32;49.28
74466;BME280;62916;50.044;15.938;2023-12-04T09:20:39;99579.05;;;16.33;49.20
74466;BME280;62916;50.044;15.938;2023-12-04T09:23:10;99577.48;;;16.33;49.19
74466;BME280;62916;50.044;15.938;2023-12-04T09:25:41;99571.55;;;16.33;49.32
74466;BME280;62916;50.044;15.938;2023-12-04T09:28:12;99565.89;;;16.33;49.31
74466;BME280;62916;50.044;15.938;2023-12-04T09:30:43;99569.26;;;16.34;49.27
74466;BME280;62916;50.044;15.938;2023-12-04T09:33:14;99567.73;;;16.34;49.25
74466;BME280;62916;50.044;15.938;2023-12-04T09:35:45;99565.12;;;16.35;49.35
74466;BME280;62916;50.044;15.938;2023-12-04T09:38:16;99561.14;;;16.38;49.34
74466;BME280;62916;50.044;15.938;2023-12-04T09:40:47;99553.45;;;16.39;49.47
74466;BME280;62916;50.044;15.938;2023-12-04T09:43:19;99550.27;;;16.41;49.33
74466;BME280;62916;50.044;15.938;2023-12-04T09:45:50;99548.30;;;16.41;49.24
74466;BME280;62916;50.044;15.938;2023-12-04T09:48:21;99544.94;;;16.41;49.19
74466;BME280;62916;50.044;15.938;2023-12-04T09:50:53;99542.48;;;16.43;49.25
74466;BME280;62916;50.044;15.938;2023-12-04T09:53:28;99534.08;;;16.44;49.14
74466;BME280;62916;50.044;15.938;2023-12-04T09:56:02;99524.61;;;16.44;49.14
74466;BME280;62916;50.044;15.938;2023-12-04T09:58:34;99516.05;;;16.45;49.16
74466;BME280;62916;50.044;15.938;2023-12-04T10:01:08;99511.90;;;16.47;49.19
74466;BME280;62916;50.044;15.938;2023-12-04T10:03:39;99508.04;;;16.48;49.31
74466;BME280;62916;50.044;15.938;2023-12-04T10:06:13;99503.25;;;16.50;49.29
74466;BME280;62916;50.044;15.938;2023-12-04T10:08:46;99502.41;;;16.51;49.25
74466;BME280;62916;50.044;15.938;2023-12-04T10:11:17;99490.15;;;16.53;49.10
74466;BME280;62916;50.044;15.938;2023-12-04T10:13:48;99482.20;;;16.55;49.11
74466;BME280;62916;50.044;15.938;2023-12-04T10:16:35;99481.70;;;16.55;49.06
74466;BME280;62916;50.044;15.938;2023-12-04T10:19:21;99471.77;;;16.58;49.06
74466;BME280;62916;50.044;15.938;2023-12-04T10:21:57;99469.23;;;16.59;49.10
74466;BME280;62916;50.044;15.938;2023-12-04T10:24:31;99462.67;;;16.61;49.18
74466;BME280;62916;50.044;15.938;2023-12-04T10:27:04;99457.61;;;16.62;49.11
74466;BME280;62916;50.044;15.938;2023-12-04T10:29:44;99452.39;;;16.64;49.24
74466;BME280;62916;50.044;15.938;2023-12-04T10:32:19;99453.34;;;16.67;49.08
74466;BME280;62916;50.044;15.938;2023-12-04T10:34:52;99449.42;;;16.68;49.04
74466;BME280;62916;50.044;15.938;2023-12-04T10:37:25;99443.01;;;16.71;49.09
74466;BME280;62916;50.044;15.938;2023-12-04T10:39:59;99441.59;;;16.73;49.00
74466;BME280;62916;50.044;15.938;2023-12-04T10:42:30;99437.33;;;16.77;49.13
74466;BME280;62916;50.044;15.938;2023-12-04T10:45:01;99437.75;;;16.80;49.05
74466;BME280;62916;50.044;15.938;2023-12-04T10:47:37;99431.41;;;16.82;49.12
74466;BME280;62916;50.044;15.938;2023-12-04T10:50:09;99423.00;;;16.85;48.89
74466;BME280;62916;50.044;15.938;2023-12-04T10:52:41;99419.18;;;16.87;48.87
74466;BME280;62916;50.044;15.938;2023-12-04T10:55:15;99411.36;;;16.90;48.96
74466;BME280;62916;50.044;15.938;2023-12-04T10:57:47;99403.39;;;16.92;48.92
74466;BME280;62916;50.044;15.938;2023-12-04T11:00:20;99400.30;;;16.95;48.96
74466;BME280;62916;50.044;15.938;2023-12-04T11:02:53;99398.16;;;16.97;48.99
74466;BME280;62916;50.044;15.938;2023-12-04T11:05:27;99394.73;;;16.99;48.93
74466;BME280;62916;50.044;15.938;2023-12-04T11:07:58;99388.92;;;17.02;48.83
74466;BME280;62916;50.044;15.938;2023-12-04T11:10:56;99378.61;;;17.04;48.89
74466;BME280;62916;50.044;15.938;2023-12-04T11:13:31;99373.89;;;17.06;48.83
74466;BME280;62916;50.044;15.938;2023-12-04T11:16:06;99372.41;;;17.09;48.79
74466;BME280;62916;50.044;15.938;2023-12-04T11:18:40;99367.79;;;17.12;48.71
74466;BME280;62916;50.044;15.938;2023-12-04T11:21:14;99361.83;;;17.14;48.81
74466;BME280;62916;50.044;15.938;2023-12-04T11:23:46;99355.25;;;17.17;48.71
74466;BME280;62916;50.044;15.938;2023-12-04T11:26:18;99347.84;;;17.20;48.56
74466;BME280;62916;50.044;15.938;2023-12-04T11:28:51;99344.38;;;17.22;48.82
74466;BME280;62916;50.044;15.938;2023-12-04T11:31:23;99335.17;;;17.25;48.65
74466;BME280;62916;50.044;15.938;2023-12-04T11:34:02;99331.13;;;17.27;48.63
74466;BME280;62916;50.044;15.938;2023-12-04T11:36:35;99328.27;;;17.30;48.56
74466;BME280;62916;50.044;15.938;2023-12-04T11:39:10;99326.52;;;17.33;48.54
74466;BME280;62916;50.044;15.938;2023-12-04T11:41:43;99324.16;;;17.35;48.52
74466;BME280;62916;50.044;15.938;2023-12-04T11:44:17;99318.59;;;17.37;48.56
74466;BME280;62916;50.044;15.938;2023-12-04T11:47:07;99312.89;;;17.40;48.65
74466;BME280;62916;50.044;15.938;2023-12-04T11:49:38;99306.08;;;17.43;48.52
74466;BME280;62916;50.044;15.938;2023-12-04T11:52:09;99300.67;;;17.45;48.49
74466;BME280;62916;50.044;15.938;2023-12-04T11:55:00;99301.23;;;17.46;48.55
74466;BME280;62916;50.044;15.938;2023-12-04T11:57:36;99289.05;;;17.48;48.53
74466;BME280;62916;50.044;15.938;2023-12-04T12:00:21;99277.49;;;17.47;48.50
74466;BME280;62916;50.044;15.938;2023-12-04T12:03:07;99272.73;;;17.51;48.43
74466;BME280;62916;50.044;15.938;2023-12-04T12:05:51;99259.88;;;17.52;48.47
74466;BME280;62916;50.044;15.938;2023-12-04T12:08:24;99251.80;;;17.52;48.46
74466;BME280;62916;50.044;15.938;2023-12-04T12:10:56;99247.58;;;17.53;48.34
74466;BME280;62916;50.044;15.938;2023-12-04T12:13:27;99238.88;;;17.55;48.45
74466;BME280;62916;50.044;15.938;2023-12-04T12:15:58;99234.55;;;17.55;48.35
74466;BME280;62916;50.044;15.938;2023-12-04T12:18:31;99228.83;;;17.55;48.32
74466;BME280;62916;50.044;15.938;2023-12-04T12:21:06;99218.78;;;17.56;48.36
74466;BME280;62916;50.044;15.938;2023-12-04T12:23:37;99216.59;;;17.57;48.21
74466;BME280;62916;50.044;15.938;2023-12-04T12:26:09;99213.05;;;17.58;48.31
74466;BME280;62916;50.044;15.938;2023-12-04T12:28:41;99204.80;;;17.58;48.32
74466;BME280;62916;50.044;15.938;2023-12-04T12:31:12;99202.64;;;17.60;48.31
74466;BME280;62916;50.044;15.938;2023-12-04T12:33:43;99197.84;;;17.62;48.31
74466;BME280;62916;50.044;15.938;2023-12-04T12:36:15;99191.52;;;17.64;48.38
74466;BME280;62916;50.044;15.938;2023-12-04T12:38:47;99184.41;;;17.67;48.28
74466;BME280;62916;50.044;15.938;2023-12-04T12:41:20;99177.07;;;17.67;48.29
74466;BME280;62916;50.044;15.938;2023-12-04T12:43:54;99169.27;;;17.68;48.17
74466;BME280;62916;50.044;15.938;2023-12-04T12:46:25;99155.54;;;17.65;48.23
74466;BME280;62916;50.044;15.938;2023-12-04T12:48:57;99158.20;;;17.69;48.15
74466;BME280;62916;50.044;15.938;2023-12-04T12:51:29;99157.58;;;17.69;48.13
74466;BME280;62916;50.044;15.938;2023-12-04T12:54:00;99151.96;;;17.69;48.14
74466;BME280;62916;50.044;15.938;2023-12-04T12:56:32;99149.33;;;17.69;47.97
74466;BME280;62916;50.044;15.938;2023-12-04T12:59:02;99139.73;;;17.69;48.04
74466;BME280;62916;50.044;15.938;2023-12-04T13:01:35;99138.97;;;17.68;48.01
74466;BME280;62916;50.044;15.938;2023-12-04T13:04:07;99134.93;;;17.68;48.06
74466;BME280;62916;50.044;15.938;2023-12-04T13:06:40;99129.16;;;17.66;48.09
74466;BME280;62916;50.044;15.938;2023-12-04T13:09:13;99130.23;;;17.65;48.08
74466;BME280;62916;50.044;15.938;2023-12-04T13:11:47;99129.02;;;17.65;48.09
74466;BME280;62916;50.044;15.938;2023-12-04T13:14:18;99118.07;;;17.65;48.22
74466;BME280;62916;50.044;15.938;2023-12-04T13:16:49;99111.67;;;17.66;48.19